sensor_id;sensor_type;location;lat;lon;timestamp;pressure;altitude;pressure_sealevel;temperature;humidity
25498;BME280;13406;53.380;7.226;2023-04-07T00:00:27;101969.25;;;7.50;100.00
25498;BME280;13406;53.380;7.226;2023-04-07T00:02:52;101937.81;;;7.43;100.00
25498;BME280;13406;53.380;7.226;2023-04-07T00:05:18;102013.28;;;7.99;100.00
25498;BME280;13406;53.380;7.226;2023-04-07T00:07:43;101914.75;;;7.42;100.00
25498;BME280;13406;53.380;7.226;2023-04-07T00:10:09;101966.28;;;7.70;100.00
25498;BME280;13406;53.380;7.226;2023-04-07T00:12:35;101909.94;;;7.28;100.00
25498;BME280;13406;53.380;7.226;2023-04-07T00:15:00;101891.84;;;7.04;100.00
25498;BME280;13406;53.380;7.226;2023-04-07T00:17:26;102003.06;;;7.77;100.00
25498;BME280;13406;53.380;7.226;2023-04-07T00:19:51;101993.16;;;7.87;100.00
25498;BME280;13406;53.380;7.226;2023-04-07T00:22:17;101924.22;;;7.37;100.00
25498;BME280;13406;53.380;7.226;2023-04-07T00:24:42;101965.59;;;7.23;100.00
25498;BME280;13406;53.380;7.226;2023-04-07T00:27:08;102004.38;;;7.73;100.00
25498;BME280;13406;53.380;7.226;2023-04-07T00:29:33;101971.69;;;7.61;100.00
25498;BME280;13406;53.380;7.226;2023-04-07T00:31:58;101871.56;;;7.11;100.00
25498;BME280;13406;53.380;7.226;2023-04-07T00:34:24;101898.56;;;7.26;100.00
25498;BME280;13406;53.380;7.226;2023-04-07T00:36:49;101879.06;;;7.25;100.00
25498;BME280;13406;53.380;7.226;2023-04-07T00:39:20;101805.69;;;6.76;100.00
25498;BME280;13406;53.380;7.226;2023-04-07T00:41:45;101837.41;;;6.97;100.00
25498;BME280;13406;53.380;7.226;2023-04-07T00:44:12;101687.38;;;5.86;100.00
25498;BME280;13406;53.380;7.226;2023-04-07T00:46:38;101749.06;;;6.46;100.00
25498;BME280;13406;53.380;7.226;2023-04-07T00:49:04;101715.06;;;6.03;100.00
25498;BME280;13406;53.380;7.226;2023-04-07T00:51:31;101872.88;;;7.07;100.00
25498;BME280;13406;53.380;7.226;2023-04-07T00:53:57;101988.16;;;7.92;100.00
25498;BME280;13406;53.380;7.226;2023-04-07T00:56:22;101900.19;;;7.37;100.00
25498;BME280;13406;53.380;7.226;2023-04-07T00:58:47;101955.13;;;7.75;100.00
25498;BME280;13406;53.380;7.226;2023-04-07T01:01:22;101890.34;;;7.37;100.00
25498;BME280;13406;53.380;7.226;2023-04-07T01:04:11;101924.31;;;7.45;100.00
25498;BME280;13406;53.380;7.226;2023-04-07T01:06:47;101883.16;;;7.20;100.00
25498;BME280;13406;53.380;7.226;2023-04-07T01:09:21;101872.34;;;7.21;100.00
25498;BME280;13406;53.380;7.226;2023-04-07T01:11:56;101856.69;;;6.91;100.00
25498;BME280;13406;53.380;7.226;2023-04-07T01:14:24;101917.53;;;7.05;100.00
25498;BME280;13406;53.380;7.226;2023-04-07T01:16:56;101965.56;;;7.68;100.00
25498;BME280;13406;53.380;7.226;2023-04-07T01:22:12;102001.44;;;7.66;100.00
25498;BME280;13406;53.380;7.226;2023-04-07T01:30:12;102000.91;;;7.80;100.00
25498;BME280;13406;53.380;7.226;2023-04-07T01:32:42;101821.34;;;6.61;100.00
25498;BME280;13406;53.380;7.226;2023-04-07T01:35:11;101933.50;;;7.15;100.00
25498;BME280;13406;53.380;7.226;2023-04-07T01:37:38;101902.66;;;7.02;100.00
25498;BME280;13406;53.380;7.226;2023-04-07T01:40:07;101881.28;;;6.85;100.00
25498;BME280;13406;53.380;7.226;2023-04-07T01:42:34;101890.44;;;7.00;100.00
25498;BME280;13406;53.380;7.226;2023-04-07T01:45:02;101903.59;;;7.11;100.00
25498;BME280;13406;53.380;7.226;2023-04-07T01:47:28;101968.22;;;7.33;100.00
25498;BME280;13406;53.380;7.226;2023-04-07T01:49:57;101907.75;;;6.96;100.00
25498;BME280;13406;53.380;7.226;2023-04-07T01:52:25;101906.75;;;6.97;100.00
25498;BME280;13406;53.380;7.226;2023-04-07T01:54:52;101901.06;;;6.92;100.00
25498;BME280;13406;53.380;7.226;2023-04-07T01:57:18;101915.06;;;6.94;100.00
25498;BME280;13406;53.380;7.226;2023-04-07T01:59:43;101880.41;;;6.66;100.00
25498;BME280;13406;53.380;7.226;2023-04-07T02:02:09;101918.72;;;6.93;100.00
25498;BME280;13406;53.380;7.226;2023-04-07T02:04:38;102019.41;;;7.46;100.00
25498;BME280;13406;53.380;7.226;2023-04-07T02:07:17;101889.34;;;6.75;100.00
25498;BME280;13406;53.380;7.226;2023-04-07T02:09:44;101985.50;;;7.29;100.00
25498;BME280;13406;53.380;7.226;2023-04-07T02:12:13;102024.34;;;7.68;100.00
25498;BME280;13406;53.380;7.226;2023-04-07T02:14:41;102030.78;;;7.48;100.00
25498;BME280;13406;53.380;7.226;2023-04-07T02:17:07;101913.50;;;7.01;100.00
25498;BME280;13406;53.380;7.226;2023-04-07T02:19:33;101941.81;;;7.12;100.00
25498;BME280;13406;53.380;7.226;2023-04-07T02:22:04;101891.31;;;6.73;100.00
25498;BME280;13406;53.380;7.226;2023-04-07T02:24:31;101873.00;;;6.60;100.00
25498;BME280;13406;53.380;7.226;2023-04-07T02:26:56;102030.06;;;7.74;100.00
25498;BME280;13406;53.380;7.226;2023-04-07T02:29:22;101978.28;;;7.39;100.00
25498;BME280;13406;53.380;7.226;2023-04-07T02:31:47;102022.69;;;7.58;100.00
25498;BME280;13406;53.380;7.226;2023-04-07T02:34:13;101933.69;;;7.04;100.00
25498;BME280;13406;53.380;7.226;2023-04-07T02:36:38;101946.25;;;7.21;100.00
25498;BME280;13406;53.380;7.226;2023-04-07T02:39:04;101912.97;;;6.97;100.00
25498;BME280;13406;53.380;7.226;2023-04-07T02:41:29;101883.94;;;6.85;100.00
25498;BME280;13406;53.380;7.226;2023-04-07T02:43:55;102022.13;;;7.64;100.00
25498;BME280;13406;53.380;7.226;2023-04-07T02:46:20;102011.44;;;7.64;100.00
25498;BME280;13406;53.380;7.226;2023-04-07T02:48:46;101766.03;;;6.18;100.00
25498;BME280;13406;53.380;7.226;2023-04-07T02:51:11;101923.56;;;7.07;100.00
25498;BME280;13406;53.380;7.226;2023-04-07T02:53:37;102028.31;;;7.82;100.00
25498;BME280;13406;53.380;7.226;2023-04-07T02:56:02;102033.50;;;7.84;100.00
25498;BME280;13406;53.380;7.226;2023-04-07T02:58:28;101972.22;;;7.46;100.00
25498;BME280;13406;53.380;7.226;2023-04-07T03:00:53;101915.19;;;7.20;100.00
25498;BME280;13406;53.380;7.226;2023-04-07T03:03:19;102028.16;;;7.84;100.00
25498;BME280;13406;53.380;7.226;2023-04-07T03:05:44;101966.81;;;7.56;100.00
25498;BME280;13406;53.380;7.226;2023-04-07T03:08:10;102024.91;;;7.90;100.00
25498;BME280;13406;53.380;7.226;2023-04-07T03:10:35;101973.72;;;7.49;100.00
25498;BME280;13406;53.380;7.226;2023-04-07T03:13:01;102018.78;;;7.80;100.00
25498;BME280;13406;53.380;7.226;2023-04-07T03:15:26;102028.84;;;7.68;100.00
25498;BME280;13406;53.380;7.226;2023-04-07T03:17:52;102003.47;;;7.54;100.00
25498;BME280;13406;53.380;7.226;2023-04-07T03:20:17;101942.28;;;7.25;100.00
25498;BME280;13406;53.380;7.226;2023-04-07T03:22:43;102032.66;;;7.65;100.00
25498;BME280;13406;53.380;7.226;2023-04-07T03:25:09;101965.56;;;7.33;100.00
25498;BME280;13406;53.380;7.226;2023-04-07T03:27:35;101990.44;;;7.51;100.00
25498;BME280;13406;53.380;7.226;2023-04-07T03:30:01;101943.88;;;7.18;100.00
25498;BME280;13406;53.380;7.226;2023-04-07T03:32:26;101952.84;;;7.17;100.00
25498;BME280;13406;53.380;7.226;2023-04-07T03:34:51;101838.31;;;6.42;100.00
25498;BME280;13406;53.380;7.226;2023-04-07T03:37:17;101958.78;;;7.38;100.00
25498;BME280;13406;53.380;7.226;2023-04-07T03:39:42;102038.56;;;7.87;100.00
25498;BME280;13406;53.380;7.226;2023-04-07T03:42:08;101846.72;;;6.65;100.00
25498;BME280;13406;53.380;7.226;2023-04-07T03:44:33;101911.31;;;6.87;100.00
25498;BME280;13406;53.380;7.226;2023-04-07T03:46:59;101985.66;;;7.27;100.00
25498;BME280;13406;53.380;7.226;2023-04-07T03:49:25;102051.56;;;7.72;100.00
25498;BME280;13406;53.380;7.226;2023-04-07T03:51:51;101806.31;;;6.42;100.00
25498;BME280;13406;53.380;7.226;2023-04-07T03:54:16;101965.75;;;7.21;100.00
25498;BME280;13406;53.380;7.226;2023-04-07T03:56:42;101900.00;;;6.75;100.00
25498;BME280;13406;53.380;7.226;2023-04-07T03:59:07;101902.31;;;6.60;100.00
25498;BME280;13406;53.380;7.226;2023-04-07T04:01:33;101926.50;;;6.86;100.00
25498;BME280;13406;53.380;7.226;2023-04-07T04:03:58;101935.72;;;6.92;100.00
25498;BME280;13406;53.380;7.226;2023-04-07T04:06:23;102068.50;;;7.63;100.00
25498;BME280;13406;53.380;7.226;2023-04-07T04:08:50;101976.69;;;7.00;100.00
25498;BME280;13406;53.380;7.226;2023-04-07T04:11:16;102057.72;;;7.55;100.00
25498;BME280;13406;53.380;7.226;2023-04-07T04:13:41;102050.34;;;7.66;100.00
25498;BME280;13406;53.380;7.226;2023-04-07T04:16:06;102028.00;;;7.40;100.00
25498;BME280;13406;53.380;7.226;2023-04-07T04:18:32;102067.66;;;7.62;100.00
25498;BME280;13406;53.380;7.226;2023-04-07T04:20:57;102081.41;;;7.67;100.00
25498;BME280;13406;53.380;7.226;2023-04-07T04:23:23;102070.19;;;7.64;100.00
25498;BME280;13406;53.380;7.226;2023-04-07T04:25:48;102074.53;;;7.65;100.00
25498;BME280;13406;53.380;7.226;2023-04-07T04:28:13;102077.94;;;7.57;100.00
25498;BME280;13406;53.380;7.226;2023-04-07T04:30:39;102053.75;;;7.41;100.00
25498;BME280;13406;53.380;7.226;2023-04-07T04:33:05;102052.53;;;7.53;100.00
25498;BME280;13406;53.380;7.226;2023-04-07T04:35:31;102063.22;;;7.53;100.00
25498;BME280;13406;53.380;7.226;2023-04-07T04:37:57;102070.00;;;7.47;100.00
25498;BME280;13406;53.380;7.226;2023-04-07T04:40:22;102082.03;;;7.52;100.00
25498;BME280;13406;53.380;7.226;2023-04-07T04:42:47;102094.59;;;7.69;100.00
25498;BME280;13406;53.380;7.226;2023-04-07T04:45:13;102081.41;;;7.67;100.00
25498;BME280;13406;53.380;7.226;2023-04-07T04:47:38;102089.91;;;7.53;100.00
25498;BME280;13406;53.380;7.226;2023-04-07T04:50:05;102063.84;;;7.37;100.00
25498;BME280;13406;53.380;7.226;2023-04-07T04:52:31;102098.88;;;7.62;100.00
25498;BME280;13406;53.380;7.226;2023-04-07T04:54:56;102041.75;;;7.17;100.00
25498;BME280;13406;53.380;7.226;2023-04-07T04:57:22;102095.38;;;7.61;100.00
25498;BME280;13406;53.380;7.226;2023-04-07T04:59:47;102093.03;;;7.48;100.00
25498;BME280;13406;53.380;7.226;2023-04-07T05:02:13;102110.25;;;7.64;100.00
25498;BME280;13406;53.380;7.226;2023-04-07T05:04:38;102083.22;;;7.39;100.00
25498;BME280;13406;53.380;7.226;2023-04-07T05:07:03;102095.16;;;7.45;100.00
25498;BME280;13406;53.380;7.226;2023-04-07T05:09:30;102088.13;;;7.44;100.00
25498;BME280;13406;53.380;7.226;2023-04-07T05:11:55;102081.06;;;7.53;100.00
25498;BME280;13406;53.380;7.226;2023-04-07T05:14:22;102108.75;;;7.52;100.00
25498;BME280;13406;53.380;7.226;2023-04-07T05:16:47;101969.84;;;6.51;100.00
25498;BME280;13406;53.380;7.226;2023-04-07T05:19:13;102057.31;;;7.22;100.00
25498;BME280;13406;53.380;7.226;2023-04-07T05:21:39;102059.56;;;7.27;100.00
25498;BME280;13406;53.380;7.226;2023-04-07T05:24:04;102029.44;;;7.07;100.00
25498;BME280;13406;53.380;7.226;2023-04-07T05:26:30;102120.28;;;7.52;100.00
25498;BME280;13406;53.380;7.226;2023-04-07T05:28:56;102124.56;;;7.35;100.00
25498;BME280;13406;53.380;7.226;2023-04-07T05:31:21;102126.97;;;7.29;100.00
25498;BME280;13406;53.380;7.226;2023-04-07T05:33:47;102116.56;;;7.25;100.00
25498;BME280;13406;53.380;7.226;2023-04-07T05:36:12;102107.13;;;7.31;100.00
25498;BME280;13406;53.380;7.226;2023-04-07T05:38:37;102123.56;;;7.36;100.00
25498;BME280;13406;53.380;7.226;2023-04-07T05:41:03;102092.94;;;7.03;100.00
25498;BME280;13406;53.380;7.226;2023-04-07T05:43:28;102080.56;;;7.12;100.00
25498;BME280;13406;53.380;7.226;2023-04-07T05:45:54;102087.72;;;7.01;100.00
25498;BME280;13406;53.380;7.226;2023-04-07T05:48:19;102112.06;;;7.26;100.00
25498;BME280;13406;53.380;7.226;2023-04-07T05:50:45;102105.91;;;7.25;100.00
25498;BME280;13406;53.380;7.226;2023-04-07T05:53:10;102094.09;;;7.28;100.00
25498;BME280;13406;53.380;7.226;2023-04-07T05:55:35;102078.56;;;7.14;100.00
25498;BME280;13406;53.380;7.226;2023-04-07T05:58:01;101980.47;;;6.61;100.00
25498;BME280;13406;53.380;7.226;2023-04-07T06:00:26;102109.94;;;7.39;100.00
25498;BME280;13406;53.380;7.226;2023-04-07T06:02:52;102089.78;;;7.17;100.00
25498;BME280;13406;53.380;7.226;2023-04-07T06:05:18;102089.56;;;7.38;100.00
25498;BME280;13406;53.380;7.226;2023-04-07T06:07:43;102011.00;;;6.86;100.00
25498;BME280;13406;53.380;7.226;2023-04-07T06:10:09;102081.34;;;7.22;100.00
25498;BME280;13406;53.380;7.226;2023-04-07T06:12:34;102039.06;;;7.17;100.00
25498;BME280;13406;53.380;7.226;2023-04-07T06:15:00;102055.47;;;7.32;100.00
25498;BME280;13406;53.380;7.226;2023-04-07T06:17:25;101981.56;;;6.68;100.00
25498;BME280;13406;53.380;7.226;2023-04-07T06:19:51;101999.34;;;6.87;100.00
25498;BME280;13406;53.380;7.226;2023-04-07T06:22:16;102018.78;;;6.97;100.00
25498;BME280;13406;53.380;7.226;2023-04-07T06:24:42;102032.69;;;7.00;100.00
25498;BME280;13406;53.380;7.226;2023-04-07T06:27:07;102042.25;;;7.03;100.00
25498;BME280;13406;53.380;7.226;2023-04-07T06:29:33;102043.47;;;7.09;100.00
25498;BME280;13406;53.380;7.226;2023-04-07T06:31:59;102034.19;;;7.13;100.00
25498;BME280;13406;53.380;7.226;2023-04-07T06:34:25;102040.31;;;7.23;100.00
25498;BME280;13406;53.380;7.226;2023-04-07T06:36:50;101984.81;;;6.99;100.00
25498;BME280;13406;53.380;7.226;2023-04-07T06:39:16;102019.91;;;7.32;100.00
25498;BME280;13406;53.380;7.226;2023-04-07T06:41:41;102020.47;;;7.35;100.00
25498;BME280;13406;53.380;7.226;2023-04-07T06:44:11;101943.88;;;6.90;100.00
25498;BME280;13406;53.380;7.226;2023-04-07T06:46:36;102011.94;;;7.22;100.00
25498;BME280;13406;53.380;7.226;2023-04-07T06:49:02;102014.66;;;7.40;100.00
25498;BME280;13406;53.380;7.226;2023-04-07T06:51:28;102013.63;;;7.51;100.00
25498;BME280;13406;53.380;7.226;2023-04-07T06:53:54;101998.34;;;7.43;100.00
25498;BME280;13406;53.380;7.226;2023-04-07T06:56:19;102005.41;;;7.62;100.00
25498;BME280;13406;53.380;7.226;2023-04-07T06:58:45;101971.34;;;7.46;100.00
25498;BME280;13406;53.380;7.226;2023-04-07T07:01:10;101896.91;;;7.25;100.00
25498;BME280;13406;53.380;7.226;2023-04-07T07:03:36;101960.91;;;7.88;100.00
25498;BME280;13406;53.380;7.226;2023-04-07T07:06:01;101915.69;;;7.51;100.00
25498;BME280;13406;53.380;7.226;2023-04-07T07:08:27;101986.34;;;8.10;100.00
25498;BME280;13406;53.380;7.226;2023-04-07T07:10:53;101934.06;;;7.72;100.00
25498;BME280;13406;53.380;7.226;2023-04-07T07:13:21;101949.75;;;8.11;100.00
25498;BME280;13406;53.380;7.226;2023-04-07T07:15:50;101778.06;;;6.77;100.00
25498;BME280;13406;53.380;7.226;2023-04-07T07:18:17;101941.00;;;7.83;100.00
25498;BME280;13406;53.380;7.226;2023-04-07T07:20:42;101986.94;;;8.22;100.00
25498;BME280;13406;53.380;7.226;2023-04-07T07:23:08;101974.22;;;8.24;100.00
25498;BME280;13406;53.380;7.226;2023-04-07T07:25:34;101971.72;;;8.23;100.00
25498;BME280;13406;53.380;7.226;2023-04-07T07:27:59;101956.63;;;8.13;100.00
25498;BME280;13406;53.380;7.226;2023-04-07T07:30:25;101922.16;;;7.84;100.00
25498;BME280;13406;53.380;7.226;2023-04-07T07:32:52;101826.69;;;7.42;100.00
25498;BME280;13406;53.380;7.226;2023-04-07T07:35:18;101963.00;;;8.38;100.00
25498;BME280;13406;53.380;7.226;2023-04-07T07:37:44;101962.69;;;8.42;100.00
25498;BME280;13406;53.380;7.226;2023-04-07T07:40:10;101925.06;;;8.17;100.00
25498;BME280;13406;53.380;7.226;2023-04-07T07:42:36;101978.66;;;8.51;100.00
25498;BME280;13406;53.380;7.226;2023-04-07T07:45:01;101917.75;;;8.19;100.00
25498;BME280;13406;53.380;7.226;2023-04-07T07:47:27;101975.81;;;8.53;100.00
25498;BME280;13406;53.380;7.226;2023-04-07T07:49:52;101862.97;;;7.97;100.00
25498;BME280;13406;53.380;7.226;2023-04-07T07:52:18;101902.22;;;8.23;100.00
25498;BME280;13406;53.380;7.226;2023-04-07T07:54:45;101970.59;;;8.77;100.00
25498;BME280;13406;53.380;7.226;2023-04-07T07:57:10;101962.59;;;8.77;100.00
25498;BME280;13406;53.380;7.226;2023-04-07T07:59:37;101972.97;;;8.80;100.00
25498;BME280;13406;53.380;7.226;2023-04-07T08:02:02;101982.47;;;9.09;100.00
25498;BME280;13406;53.380;7.226;2023-04-07T08:04:28;101949.81;;;8.97;100.00
25498;BME280;13406;53.380;7.226;2023-04-07T08:06:53;101910.38;;;8.65;100.00
25498;BME280;13406;53.380;7.226;2023-04-07T08:09:19;101902.63;;;8.54;100.00
25498;BME280;13406;53.380;7.226;2023-04-07T08:11:45;101981.66;;;9.25;100.00
25498;BME280;13406;53.380;7.226;2023-04-07T08:14:13;101976.31;;;9.25;100.00
25498;BME280;13406;53.380;7.226;2023-04-07T08:16:38;101938.81;;;9.09;100.00
25498;BME280;13406;53.380;7.226;2023-04-07T08:19:04;101982.75;;;9.40;100.00
25498;BME280;13406;53.380;7.226;2023-04-07T08:21:29;101898.13;;;9.05;100.00
25498;BME280;13406;53.380;7.226;2023-04-07T08:23:56;101973.22;;;9.62;100.00
25498;BME280;13406;53.380;7.226;2023-04-07T08:26:21;101964.34;;;9.54;100.00
25498;BME280;13406;53.380;7.226;2023-04-07T08:28:48;101925.50;;;9.41;100.00
25498;BME280;13406;53.380;7.226;2023-04-07T08:31:15;101961.53;;;9.63;100.00
25498;BME280;13406;53.380;7.226;2023-04-07T08:33:41;101916.59;;;9.24;100.00
25498;BME280;13406;53.380;7.226;2023-04-07T08:36:06;101967.03;;;9.62;100.00
25498;BME280;13406;53.380;7.226;2023-04-07T08:38:32;101972.56;;;9.68;100.00
25498;BME280;13406;53.380;7.226;2023-04-07T08:41:01;101978.25;;;9.65;100.00
25498;BME280;13406;53.380;7.226;2023-04-07T08:43:28;101968.88;;;9.53;100.00
25498;BME280;13406;53.380;7.226;2023-04-07T08:45:55;101979.44;;;9.71;100.00
25498;BME280;13406;53.380;7.226;2023-04-07T08:48:23;101979.63;;;9.86;100.00
25498;BME280;13406;53.380;7.226;2023-04-07T08:50:51;101988.50;;;9.86;100.00
25498;BME280;13406;53.380;7.226;2023-04-07T08:53:23;101994.22;;;10.00;100.00
25498;BME280;13406;53.380;7.226;2023-04-07T08:55:53;101924.00;;;9.71;100.00
25498;BME280;13406;53.380;7.226;2023-04-07T08:58:19;101917.84;;;9.95;100.00
25498;BME280;13406;53.380;7.226;2023-04-07T09:00:45;101842.97;;;9.45;100.00
25498;BME280;13406;53.380;7.226;2023-04-07T09:03:14;101974.78;;;10.38;100.00
25498;BME280;13406;53.380;7.226;2023-04-07T09:05:43;101968.94;;;10.35;100.00
25498;BME280;13406;53.380;7.226;2023-04-07T09:08:09;101944.47;;;10.30;100.00
25498;BME280;13406;53.380;7.226;2023-04-07T09:10:35;101980.13;;;10.63;100.00
25498;BME280;13406;53.380;7.226;2023-04-07T09:13:01;101956.66;;;10.57;100.00
25498;BME280;13406;53.380;7.226;2023-04-07T09:15:30;101978.28;;;10.63;100.00
25498;BME280;13406;53.380;7.226;2023-04-07T09:17:57;101898.53;;;10.25;100.00
25498;BME280;13406;53.380;7.226;2023-04-07T09:20:23;101944.97;;;10.42;100.00
25498;BME280;13406;53.380;7.226;2023-04-07T09:22:49;101958.34;;;10.50;100.00
25498;BME280;13406;53.380;7.226;2023-04-07T09:25:21;101958.00;;;10.53;100.00
25498;BME280;13406;53.380;7.226;2023-04-07T09:27:55;101938.41;;;10.44;100.00
25498;BME280;13406;53.380;7.226;2023-04-07T09:30:21;101955.16;;;10.46;100.00
25498;BME280;13406;53.380;7.226;2023-04-07T09:32:47;101969.19;;;10.73;100.00
25498;BME280;13406;53.380;7.226;2023-04-07T09:35:12;101876.44;;;10.31;100.00
25498;BME280;13406;53.380;7.226;2023-04-07T09:37:38;101965.63;;;10.89;100.00
25498;BME280;13406;53.380;7.226;2023-04-07T09:40:03;101930.81;;;10.64;100.00
25498;BME280;13406;53.380;7.226;2023-04-07T09:42:29;101917.81;;;10.84;100.00
25498;BME280;13406;53.380;7.226;2023-04-07T09:44:59;101905.16;;;10.61;100.00
25498;BME280;13406;53.380;7.226;2023-04-07T09:47:30;101939.94;;;10.94;100.00
25498;BME280;13406;53.380;7.226;2023-04-07T09:49:56;101889.22;;;10.68;100.00
25498;BME280;13406;53.380;7.226;2023-04-07T09:52:48;101958.75;;;11.25;100.00
25498;BME280;13406;53.380;7.226;2023-04-07T09:55:15;101878.22;;;10.86;100.00
25498;BME280;13406;53.380;7.226;2023-04-07T09:57:42;101940.78;;;11.26;100.00
25498;BME280;13406;53.380;7.226;2023-04-07T10:00:08;101949.44;;;11.36;100.00
25498;BME280;13406;53.380;7.226;2023-04-07T10:02:35;101868.72;;;10.75;100.00
25498;BME280;13406;53.380;7.226;2023-04-07T10:05:01;101897.78;;;11.03;100.00
25498;BME280;13406;53.380;7.226;2023-04-07T10:07:26;101891.22;;;11.05;100.00
25498;BME280;13406;53.380;7.226;2023-04-07T10:09:52;101922.19;;;11.47;100.00
25498;BME280;13406;53.380;7.226;2023-04-07T10:12:17;101933.72;;;11.56;100.00
25498;BME280;13406;53.380;7.226;2023-04-07T10:14:44;101884.16;;;11.36;100.00
25498;BME280;13406;53.380;7.226;2023-04-07T10:17:13;101918.84;;;11.68;100.00
25498;BME280;13406;53.380;7.226;2023-04-07T10:19:43;101899.84;;;11.70;100.00
25498;BME280;13406;53.380;7.226;2023-04-07T10:22:10;101902.91;;;11.67;100.00
25498;BME280;13406;53.380;7.226;2023-04-07T10:27:11;101861.41;;;11.69;100.00
25498;BME280;13406;53.380;7.226;2023-04-07T10:29:40;101864.91;;;11.70;100.00
25498;BME280;13406;53.380;7.226;2023-04-07T10:32:06;101851.22;;;11.80;100.00
25498;BME280;13406;53.380;7.226;2023-04-07T10:34:54;101896.44;;;11.99;100.00
25498;BME280;13406;53.380;7.226;2023-04-07T10:37:23;101894.13;;;11.96;100.00
25498;BME280;13406;53.380;7.226;2023-04-07T10:40:26;101875.25;;;11.81;100.00
25498;BME280;13406;53.380;7.226;2023-04-07T10:45:07;101808.25;;;11.57;100.00
25498;BME280;13406;53.380;7.226;2023-04-07T10:50:19;101904.25;;;12.24;100.00
25498;BME280;13406;53.380;7.226;2023-04-07T10:52:46;101883.69;;;12.46;100.00
25498;BME280;13406;53.380;7.226;2023-04-07T10:55:33;101896.09;;;12.47;100.00
25498;BME280;13406;53.380;7.226;2023-04-07T10:58:17;101899.38;;;12.57;100.00
25498;BME280;13406;53.380;7.226;2023-04-07T11:03:23;101902.63;;;12.67;100.00
25498;BME280;13406;53.380;7.226;2023-04-07T11:05:49;101907.63;;;12.70;100.00
25498;BME280;13406;53.380;7.226;2023-04-07T11:08:15;101817.63;;;12.28;100.00
25498;BME280;13406;53.380;7.226;2023-04-07T11:10:46;101893.88;;;12.80;100.00
25498;BME280;13406;53.380;7.226;2023-04-07T11:13:12;101829.78;;;12.39;100.00
25498;BME280;13406;53.380;7.226;2023-04-07T11:15:37;101868.66;;;12.51;100.00
25498;BME280;13406;53.380;7.226;2023-04-07T11:18:13;101897.97;;;12.91;100.00
25498;BME280;13406;53.380;7.226;2023-04-07T11:20:41;101884.94;;;12.94;100.00
25498;BME280;13406;53.380;7.226;2023-04-07T11:23:07;101852.31;;;12.68;100.00
25498;BME280;13406;53.380;7.226;2023-04-07T11:25:32;101809.66;;;12.35;100.00
25498;BME280;13406;53.380;7.226;2023-04-07T11:27:59;101887.44;;;12.96;100.00
25498;BME280;13406;53.380;7.226;2023-04-07T11:30:25;101760.03;;;12.23;100.00
25498;BME280;13406;53.380;7.226;2023-04-07T11:32:51;101889.09;;;13.11;100.00
25498;BME280;13406;53.380;7.226;2023-04-07T11:35:16;101884.72;;;13.10;100.00
25498;BME280;13406;53.380;7.226;2023-04-07T11:37:41;101812.00;;;12.74;100.00
25498;BME280;13406;53.380;7.226;2023-04-07T11:40:08;101863.19;;;13.10;100.00
25498;BME280;13406;53.380;7.226;2023-04-07T11:42:38;101896.16;;;13.49;100.00
25498;BME280;13406;53.380;7.226;2023-04-07T11:45:05;101893.97;;;13.23;100.00
25498;BME280;13406;53.380;7.226;2023-04-07T11:47:37;101891.25;;;13.38;100.00
25498;BME280;13406;53.380;7.226;2023-04-07T11:50:03;101850.03;;;13.22;100.00
25498;BME280;13406;53.380;7.226;2023-04-07T11:52:48;101898.56;;;13.65;100.00
25498;BME280;13406;53.380;7.226;2023-04-07T11:55:20;101810.19;;;12.96;100.00
25498;BME280;13406;53.380;7.226;2023-04-07T11:57:48;101847.19;;;13.45;100.00
25498;BME280;13406;53.380;7.226;2023-04-07T12:00:16;101841.84;;;13.30;100.00
25498;BME280;13406;53.380;7.226;2023-04-07T12:02:43;101905.56;;;13.81;100.00
25498;BME280;13406;53.380;7.226;2023-04-07T12:05:08;101901.66;;;13.84;100.00
25498;BME280;13406;53.380;7.226;2023-04-07T12:07:38;101882.72;;;13.77;100.00
25498;BME280;13406;53.380;7.226;2023-04-07T12:10:21;101895.03;;;13.65;100.00
25498;BME280;13406;53.380;7.226;2023-04-07T12:12:47;101890.88;;;13.62;100.00
25498;BME280;13406;53.380;7.226;2023-04-07T12:15:14;101920.91;;;13.81;100.00
25498;BME280;13406;53.380;7.226;2023-04-07T12:17:44;101905.44;;;13.89;100.00
25498;BME280;13406;53.380;7.226;2023-04-07T12:20:11;101902.81;;;13.74;100.00
25498;BME280;13406;53.380;7.226;2023-04-07T12:22:36;101910.25;;;13.72;100.00
25498;BME280;13406;53.380;7.226;2023-04-07T12:25:02;101874.38;;;13.50;100.00
25498;BME280;13406;53.380;7.226;2023-04-07T12:27:27;101900.81;;;13.83;100.00
25498;BME280;13406;53.380;7.226;2023-04-07T12:29:52;101908.72;;;14.13;100.00
25498;BME280;13406;53.380;7.226;2023-04-07T12:32:18;101908.03;;;14.04;100.00
25498;BME280;13406;53.380;7.226;2023-04-07T12:34:43;101914.09;;;14.06;100.00
25498;BME280;13406;53.380;7.226;2023-04-07T12:37:09;101892.19;;;14.22;100.00
25498;BME280;13406;53.380;7.226;2023-04-07T12:39:34;101878.09;;;14.27;100.00
25498;BME280;13406;53.380;7.226;2023-04-07T12:41:59;101847.66;;;14.05;100.00
25498;BME280;13406;53.380;7.226;2023-04-07T12:44:25;101854.44;;;13.94;100.00
25498;BME280;13406;53.380;7.226;2023-04-07T12:46:50;101840.38;;;14.06;100.00
25498;BME280;13406;53.380;7.226;2023-04-07T12:49:16;101860.03;;;14.28;100.00
25498;BME280;13406;53.380;7.226;2023-04-07T12:51:41;101876.94;;;14.43;100.00
25498;BME280;13406;53.380;7.226;2023-04-07T12:54:07;101882.09;;;14.66;100.00
25498;BME280;13406;53.380;7.226;2023-04-07T12:56:32;101697.25;;;13.38;100.00
25498;BME280;13406;53.380;7.226;2023-04-07T12:58:58;101892.44;;;14.56;100.00
25498;BME280;13406;53.380;7.226;2023-04-07T13:01:23;101893.19;;;14.84;100.00
25498;BME280;13406;53.380;7.226;2023-04-07T13:03:49;101894.75;;;14.65;100.00